createdAt,value
2022-09-12T00:01:22.350Z,100720.00
2022-09-12T00:03:54.858Z,100719.00
2022-09-12T00:06:32.793Z,100712.00
2022-09-12T00:09:05.303Z,100716.00
2022-09-12T00:11:32.695Z,100715.00
2022-09-12T00:14:02.094Z,100709.00
2022-09-12T00:16:38.303Z,100710.00
2022-09-12T00:19:07.182Z,100707.00
2022-09-12T00:21:37.232Z,100709.00
2022-09-12T00:24:05.598Z,100706.00
2022-09-12T00:26:33.444Z,100710.00
2022-09-12T00:29:00.887Z,100708.00
2022-09-12T00:31:28.698Z,100711.00
2022-09-12T00:34:02.249Z,100703.00
2022-09-12T00:36:30.687Z,100716.00
2022-09-12T00:38:58.828Z,100709.00
2022-09-12T00:41:34.178Z,100709.00
2022-09-12T00:44:21.500Z,100703.00
2022-09-12T00:46:48.726Z,100698.00
2022-09-12T00:49:25.063Z,100690.00
2022-09-12T00:52:10.424Z,100690.00
2022-09-12T00:54:56.162Z,100692.00
2022-09-12T00:57:29.889Z,100684.00
2022-09-12T01:00:14.708Z,100686.00
2022-09-12T01:02:45.184Z,100689.00
2022-09-12T01:05:13.975Z,100682.00
2022-09-12T01:07:42.126Z,100679.00
2022-09-12T01:10:11.297Z,100676.00
2022-09-12T01:12:41.248Z,100674.00
2022-09-12T01:15:10.662Z,100671.00
2022-09-12T01:17:56.524Z,100678.00
2022-09-12T01:20:30.178Z,100677.00
2022-09-12T01:23:20.540Z,100671.00
2022-09-12T01:26:06.783Z,100665.00
2022-09-12T01:29:07.483Z,100670.00
2022-09-12T01:31:52.444Z,100674.00
2022-09-12T01:34:29.798Z,100676.00
2022-09-12T01:37:26.666Z,100673.00
2022-09-12T01:40:31.756Z,100674.00
2022-09-12T01:43:21.462Z,100672.00
2022-09-12T01:46:25.159Z,100668.00
2022-09-12T01:49:04.493Z,100666.00
2022-09-12T01:51:40.246Z,100663.00
2022-09-12T01:54:19.830Z,100656.00
2022-09-12T01:56:55.807Z,100658.00
2022-09-12T01:59:36.580Z,100654.00
2022-09-12T02:02:25.950Z,100653.00
2022-09-12T02:05:27.101Z,100656.00
2022-09-12T02:08:28.692Z,100649.00
2022-09-12T02:11:10.325Z,100648.00
2022-09-12T02:13:52.782Z,100652.00
2022-09-12T02:16:31.787Z,100643.00
2022-09-12T02:19:08.225Z,100642.00
2022-09-12T02:21:38.920Z,100651.00
2022-09-12T02:24:10.384Z,100653.00
2022-09-12T02:26:55.320Z,100645.00
2022-09-12T02:29:23.162Z,100647.00
2022-09-12T02:32:26.758Z,100646.00
2022-09-12T02:35:09.107Z,100646.00
2022-09-12T02:37:54.287Z,100647.00
2022-09-12T02:40:23.160Z,100645.00
2022-09-12T02:42:51.401Z,100645.00
2022-09-12T02:45:19.447Z,100644.00
2022-09-12T02:47:57.414Z,100637.00
2022-09-12T02:50:25.553Z,100631.00
2022-09-12T02:52:55.864Z,100628.00
2022-09-12T02:55:25.338Z,100624.00
2022-09-12T02:57:53.067Z,100626.00
2022-09-12T03:00:20.922Z,100628.00
2022-09-12T03:02:53.960Z,100625.00
2022-09-12T03:05:33.424Z,100624.00
2022-09-12T03:08:38.996Z,100627.00
2022-09-12T03:11:25.304Z,100623.00
2022-09-12T03:14:07.980Z,100626.00
2022-09-12T03:16:54.206Z,100626.00
2022-09-12T03:20:12.312Z,100623.00
2022-09-12T03:23:02.188Z,100616.00
2022-09-12T03:25:37.183Z,100615.00
2022-09-12T03:28:16.194Z,100621.00
2022-09-12T03:30:46.906Z,100618.00
2022-09-12T03:33:17.068Z,100623.00
2022-09-12T03:35:45.814Z,100625.00
2022-09-12T03:38:13.790Z,100617.00
2022-09-12T03:40:41.577Z,100617.00
2022-09-12T03:43:10.556Z,100618.00
2022-09-12T03:45:48.095Z,100621.00
2022-09-12T03:48:15.393Z,100618.00
2022-09-12T03:50:42.754Z,100624.00
2022-09-12T03:53:12.969Z,100622.00
2022-09-12T03:55:42.730Z,100620.00
2022-09-12T03:58:10.092Z,100625.00
2022-09-12T04:00:40.322Z,100631.00
2022-09-12T04:03:07.791Z,100626.00
2022-09-12T04:05:36.779Z,100626.00
2022-09-12T04:08:04.313Z,100628.00
2022-09-12T04:10:32.413Z,100620.00
2022-09-12T04:12:59.887Z,100622.00
2022-09-12T04:15:27.439Z,100620.00
2022-09-12T04:17:54.870Z,100623.00
2022-09-12T04:20:22.409Z,100631.00
2022-09-12T04:22:49.784Z,100627.00
2022-09-12T04:25:17.497Z,100619.00
2022-09-12T04:27:45.498Z,100628.00
2022-09-12T04:30:13.511Z,100621.00
2022-09-12T04:32:41.730Z,100630.00
2022-09-12T04:35:09.358Z,100628.00
2022-09-12T04:37:36.698Z,100632.00
2022-09-12T04:40:04.653Z,100633.00
2022-09-12T04:42:32.298Z,100640.00
2022-09-12T04:44:59.631Z,100633.00
2022-09-12T04:47:26.978Z,100634.00
2022-09-12T04:49:54.670Z,100631.00
2022-09-12T04:52:22.166Z,100629.00
2022-09-12T04:54:49.567Z,100635.00
2022-09-12T04:57:20.234Z,100628.00
2022-09-12T04:59:47.757Z,100641.00
2022-09-12T05:02:15.347Z,100643.00
2022-09-12T05:04:43.016Z,100643.00
2022-09-12T05:07:10.966Z,100640.00
2022-09-12T05:09:38.444Z,100641.00
2022-09-12T05:12:07.581Z,100639.00
2022-09-12T05:14:35.424Z,100637.00
2022-09-12T05:17:06.177Z,100638.00
2022-09-12T05:19:33.852Z,100636.00
2022-09-12T05:22:01.404Z,100643.00
2022-09-12T05:24:29.195Z,100643.00
2022-09-12T05:26:57.086Z,100639.00
2022-09-12T05:29:25.380Z,100635.00
2022-09-12T05:31:53.059Z,100636.00
2022-09-12T05:34:21.465Z,100639.00
2022-09-12T05:36:49.992Z,100643.00
2022-09-12T05:39:18.727Z,100643.00
2022-09-12T05:41:46.127Z,100648.00
2022-09-12T05:44:15.128Z,100646.00
2022-09-12T05:46:51.426Z,100642.00
2022-09-12T05:49:19.482Z,100645.00
2022-09-12T05:51:47.022Z,100648.00
2022-09-12T05:54:19.664Z,100650.00
2022-09-12T05:56:48.556Z,100649.00
2022-09-12T05:59:19.166Z,100645.00
2022-09-12T06:01:47.312Z,100649.00
2022-09-12T06:04:15.064Z,100645.00
2022-09-12T06:06:47.516Z,100654.00
2022-09-12T06:09:16.956Z,100655.00
2022-09-12T06:11:46.355Z,100659.00
2022-09-12T06:14:16.960Z,100665.00
2022-09-12T06:16:44.871Z,100663.00
2022-09-12T06:19:27.795Z,100657.00
2022-09-12T06:21:55.513Z,100658.00
2022-09-12T06:24:23.085Z,100656.00
2022-09-12T06:26:52.999Z,100653.00
2022-09-12T06:29:20.540Z,100656.00
2022-09-12T06:31:48.000Z,100652.00
2022-09-12T06:34:16.742Z,100653.00
2022-09-12T06:36:47.812Z,100657.00
2022-09-12T06:39:18.978Z,100655.00
2022-09-12T06:41:50.055Z,100655.00
2022-09-12T06:44:21.090Z,100652.00
2022-09-12T06:46:49.527Z,100651.00
2022-09-12T06:49:18.913Z,100640.00
2022-09-12T06:51:48.591Z,100649.00
2022-09-12T06:54:19.429Z,100640.00
2022-09-12T06:56:49.462Z,100644.00
2022-09-12T06:59:21.146Z,100643.00
2022-09-12T07:01:48.710Z,100647.00
2022-09-12T07:04:18.605Z,100639.00
2022-09-12T07:06:55.889Z,100642.00
2022-09-12T07:09:26.735Z,100649.00
2022-09-12T07:12:00.239Z,100643.00
2022-09-12T07:14:30.670Z,100639.00
2022-09-12T07:17:02.681Z,100642.00
2022-09-12T07:19:30.410Z,100649.00
2022-09-12T07:22:12.665Z,100654.00
2022-09-12T07:24:43.124Z,100648.00
2022-09-12T07:27:25.133Z,100636.00
2022-09-12T07:29:57.512Z,100652.00
2022-09-12T07:32:38.718Z,100651.00
2022-09-12T07:35:18.269Z,100648.00
2022-09-12T07:37:48.450Z,100649.00
2022-09-12T07:40:24.564Z,100650.00
2022-09-12T07:43:08.261Z,100656.00
2022-09-12T07:45:46.634Z,100646.00
2022-09-12T07:51:14.908Z,100650.00
2022-09-12T07:53:59.239Z,100643.00
2022-09-12T07:56:39.183Z,100652.00
2022-09-12T07:59:52.465Z,100654.00
2022-09-12T08:02:53.211Z,100651.00
2022-09-12T08:05:23.398Z,100643.00
2022-09-12T08:07:57.676Z,100648.00
2022-09-12T08:10:55.793Z,100658.00
2022-09-12T08:14:23.070Z,100652.00
2022-09-12T08:17:05.493Z,100665.00
2022-09-12T08:20:03.767Z,100652.00
2022-09-12T08:22:46.261Z,100657.00
2022-09-12T08:25:19.609Z,100667.00
2022-09-12T08:28:58.985Z,100654.00
2022-09-12T08:31:48.936Z,100659.00
2022-09-12T08:34:29.134Z,100662.00
2022-09-12T08:37:14.357Z,100665.00
2022-09-12T08:39:48.036Z,100661.00
2022-09-12T08:43:07.723Z,100662.00
2022-09-12T08:50:49.978Z,100666.00
2022-09-12T08:53:44.827Z,100664.00
2022-09-12T09:01:36.135Z,100655.00
2022-09-12T09:04:30.991Z,100653.00
2022-09-12T09:07:54.010Z,100649.00
2022-09-12T09:10:47.668Z,100655.00
2022-09-12T09:13:51.893Z,100650.00
2022-09-12T09:16:45.505Z,100649.00
2022-09-12T09:19:50.123Z,100638.00
2022-09-12T09:23:09.629Z,100639.00
2022-09-12T09:26:38.312Z,100646.00
2022-09-12T09:39:08.651Z,100631.00
2022-09-12T09:43:19.721Z,100638.00
2022-09-12T09:46:07.122Z,100625.00
2022-09-12T09:48:56.810Z,100629.00
2022-09-12T09:51:49.203Z,100629.00
2022-09-12T09:55:01.161Z,100616.00
2022-09-12T10:01:28.005Z,100622.00
2022-09-12T10:04:51.832Z,100625.00
2022-09-12T10:07:34.818Z,100619.00
2022-09-12T10:10:50.690Z,100619.00
2022-09-12T10:14:04.696Z,100613.00
2022-09-12T10:17:03.723Z,100618.00
2022-09-12T10:19:59.872Z,100620.00
2022-09-12T10:22:54.644Z,100609.00
2022-09-12T10:25:38.027Z,100611.00
2022-09-12T10:28:31.579Z,100612.00
2022-09-12T10:31:25.091Z,100617.00
2022-09-12T10:34:24.217Z,100620.00
2022-09-12T10:37:16.708Z,100610.00
2022-09-12T10:40:06.906Z,100611.00
2022-09-12T10:42:57.529Z,100610.00
2022-09-12T10:45:47.363Z,100593.00
2022-09-12T10:48:34.922Z,100604.00
2022-09-12T10:51:15.999Z,100597.00
2022-09-12T10:54:02.334Z,100593.00
2022-09-12T10:57:08.960Z,100593.00
2022-09-12T11:00:14.363Z,100596.00
2022-09-12T11:03:24.345Z,100595.00
2022-09-12T11:06:39.118Z,100594.00
2022-09-12T11:09:40.739Z,100579.00
2022-09-12T11:12:38.722Z,100586.00
2022-09-12T11:15:41.297Z,100589.00
2022-09-12T11:18:43.636Z,100578.00
2022-09-12T11:22:08.067Z,100580.00
2022-09-12T11:29:36.391Z,100578.00
2022-09-12T11:47:53.608Z,100569.00
2022-09-12T12:11:16.247Z,100567.00
2022-09-12T12:14:13.545Z,100566.00
2022-09-12T12:17:13.303Z,100562.00
2022-09-12T12:45:20.171Z,100541.00
2022-09-12T12:49:09.525Z,100533.00
2022-09-12T12:53:03.478Z,100529.00
2022-09-12T12:59:24.202Z,100528.00
2022-09-12T13:01:55.442Z,100521.00
2022-09-12T13:04:27.333Z,100523.00
2022-09-12T13:07:07.691Z,100526.00
2022-09-12T13:09:44.687Z,100512.00
2022-09-12T13:12:25.273Z,100513.00
2022-09-12T13:14:59.665Z,100510.00
2022-09-12T13:17:40.304Z,100504.00
2022-09-12T13:20:29.919Z,100495.00
2022-09-12T13:22:58.970Z,100499.00
2022-09-12T13:25:36.222Z,100500.00
2022-09-12T13:28:11.884Z,100501.00
2022-09-12T13:30:59.548Z,100494.00
2022-09-12T13:33:49.236Z,100490.00
2022-09-12T13:36:55.473Z,100487.00
2022-09-12T13:39:33.338Z,100483.00
2022-09-12T13:42:03.841Z,100481.00
2022-09-12T13:44:34.141Z,100481.00
2022-09-12T13:47:01.746Z,100481.00
2022-09-12T13:49:40.155Z,100476.00
2022-09-12T13:52:21.064Z,100479.00
2022-09-12T13:54:52.572Z,100469.00
2022-09-12T13:57:39.691Z,100463.00
2022-09-12T14:00:16.338Z,100469.00
2022-09-12T14:02:44.153Z,100468.00
2022-09-12T14:05:20.218Z,100464.00
2022-09-12T14:07:59.406Z,100464.00
2022-09-12T14:10:33.549Z,100463.00
2022-09-12T14:13:02.811Z,100461.00
2022-09-12T14:15:32.946Z,100459.00
2022-09-12T14:18:03.477Z,100462.00
2022-09-12T14:20:33.270Z,100446.00
2022-09-12T14:23:18.967Z,100448.00
2022-09-12T14:25:48.267Z,100448.00
2022-09-12T14:28:23.526Z,100442.00
2022-09-12T14:31:03.774Z,100436.00
2022-09-12T14:33:46.956Z,100433.00
2022-09-12T14:36:37.503Z,100429.00
2022-09-12T14:39:30.219Z,100427.00
2022-09-12T14:42:07.777Z,100430.00
2022-09-12T14:44:36.796Z,100423.00
2022-09-12T14:47:23.146Z,100424.00
2022-09-12T14:49:52.075Z,100423.00
2022-09-12T14:52:33.363Z,100422.00
2022-09-12T14:55:03.806Z,100423.00
2022-09-12T14:57:40.087Z,100416.00
2022-09-12T15:00:14.130Z,100414.00
2022-09-12T15:02:43.578Z,100419.00
2022-09-12T15:05:11.359Z,100416.00
2022-09-12T15:07:57.991Z,100409.00
2022-09-12T15:10:36.761Z,100413.00
2022-09-12T15:13:14.276Z,100412.00
2022-09-12T15:15:46.516Z,100414.00
2022-09-12T15:18:15.200Z,100425.00
2022-09-12T15:20:44.351Z,100424.00
2022-09-12T15:23:33.146Z,100419.00
2022-09-12T15:26:01.254Z,100411.00
2022-09-12T15:28:30.082Z,100417.00
2022-09-12T15:31:03.633Z,100408.00
2022-09-12T15:33:30.993Z,100405.00
2022-09-12T15:35:58.526Z,100414.00
2022-09-12T15:38:26.838Z,100406.00
2022-09-12T15:40:54.993Z,100402.00
2022-09-12T15:43:23.693Z,100400.00
2022-09-12T15:45:52.524Z,100402.00
2022-09-12T15:48:21.289Z,100407.00
2022-09-12T15:50:49.276Z,100404.00
2022-09-12T15:53:17.813Z,100409.00
2022-09-12T15:55:45.839Z,100402.00
2022-09-12T15:58:13.398Z,100395.00
2022-09-12T16:00:41.618Z,100391.00
2022-09-12T16:03:24.864Z,100389.00
2022-09-12T16:06:03.675Z,100391.00
2022-09-12T16:08:32.320Z,100381.00
2022-09-12T16:11:16.558Z,100387.00
2022-09-12T16:13:45.044Z,100378.00
2022-09-12T16:16:12.363Z,100374.00
2022-09-12T16:18:43.169Z,100369.00
2022-09-12T16:21:14.875Z,100368.00
2022-09-12T16:23:44.922Z,100364.00
2022-09-12T16:26:12.530Z,100371.00
2022-09-12T16:28:40.503Z,100361.00
2022-09-12T16:31:10.516Z,100358.00
2022-09-12T16:33:39.585Z,100352.00
2022-09-12T16:36:14.071Z,100355.00
2022-09-12T16:38:48.939Z,100352.00
2022-09-12T16:41:19.027Z,100344.00
2022-09-12T16:43:47.024Z,100347.00
2022-09-12T16:46:23.404Z,100345.00
2022-09-12T16:48:54.255Z,100340.00
2022-09-12T16:51:24.243Z,100337.00
2022-09-12T16:53:52.254Z,100338.00
2022-09-12T16:56:20.100Z,100332.00
2022-09-12T16:58:48.998Z,100339.00
2022-09-12T17:01:21.940Z,100322.00
2022-09-12T17:03:56.707Z,100312.00
2022-09-12T17:06:25.934Z,100317.00
2022-09-12T17:08:55.816Z,100331.00
2022-09-12T17:11:31.269Z,100319.00
2022-09-12T17:14:06.233Z,100323.00
2022-09-12T17:16:38.344Z,100323.00
2022-09-12T17:19:07.146Z,100320.00
2022-09-12T17:21:35.627Z,100319.00
2022-09-12T17:24:03.766Z,100319.00
2022-09-12T17:26:31.155Z,100311.00
2022-09-12T17:28:58.547Z,100310.00
2022-09-12T17:31:26.826Z,100302.00
2022-09-12T17:33:59.662Z,100305.00
2022-09-12T17:36:28.888Z,100314.00
2022-09-12T17:38:56.298Z,100303.00
2022-09-12T17:41:27.739Z,100304.00
2022-09-12T17:43:57.456Z,100304.00
2022-09-12T17:46:32.017Z,100302.00
2022-09-12T17:49:01.083Z,100305.00
2022-09-12T17:51:31.337Z,100300.00
2022-09-12T17:54:10.546Z,100301.00
2022-09-12T17:56:39.217Z,100298.00
2022-09-12T17:59:08.930Z,100300.00
2022-09-12T18:01:55.206Z,100302.00
2022-09-12T18:04:22.761Z,100301.00
2022-09-12T18:06:50.454Z,100297.00
2022-09-12T18:09:21.752Z,100303.00
2022-09-12T18:11:49.597Z,100297.00
2022-09-12T18:14:18.054Z,100302.00
2022-09-12T18:16:46.724Z,100295.00
2022-09-12T18:19:14.951Z,100292.00
2022-09-12T18:21:42.489Z,100297.00
2022-09-12T18:24:11.448Z,100294.00
2022-09-12T18:26:39.118Z,100290.00
2022-09-12T18:29:06.977Z,100284.00
2022-09-12T18:31:34.677Z,100287.00
2022-09-12T18:34:06.415Z,100286.00
2022-09-12T18:36:33.942Z,100277.00
2022-09-12T18:39:01.565Z,100270.00
2022-09-12T18:41:29.230Z,100280.00
2022-09-12T18:44:01.442Z,100270.00
2022-09-12T18:46:31.249Z,100271.00
2022-09-12T18:49:00.143Z,100278.00
2022-09-12T18:51:31.824Z,100274.00
2022-09-12T18:54:03.209Z,100273.00
2022-09-12T18:56:33.123Z,100271.00
2022-09-12T18:59:02.554Z,100273.00
2022-09-12T19:01:34.137Z,100272.00
2022-09-12T19:04:04.901Z,100268.00
2022-09-12T19:06:39.840Z,100264.00
2022-09-12T19:09:09.670Z,100261.00
2022-09-12T19:11:50.135Z,100275.00
2022-09-12T19:14:24.915Z,100271.00
2022-09-12T19:16:53.680Z,100273.00
2022-09-12T19:19:21.719Z,100271.00
2022-09-12T19:21:49.205Z,100268.00
2022-09-12T19:24:21.946Z,100263.00
2022-09-12T19:26:50.895Z,100261.00
2022-09-12T19:29:19.193Z,100255.00
2022-09-12T19:31:47.205Z,100258.00
2022-09-12T19:34:15.186Z,100257.00
2022-09-12T19:36:46.927Z,100254.00
2022-09-12T19:39:17.012Z,100249.00
2022-09-12T19:41:45.141Z,100255.00
2022-09-12T19:44:12.870Z,100253.00
2022-09-12T19:46:40.623Z,100246.00
2022-09-12T19:49:09.688Z,100248.00
2022-09-12T19:51:37.280Z,100238.00
2022-09-12T19:54:04.826Z,100243.00
2022-09-12T19:56:32.321Z,100238.00
2022-09-12T19:58:59.922Z,100243.00
2022-09-12T20:01:28.895Z,100245.00
2022-09-12T20:04:00.146Z,100236.00
2022-09-12T20:06:30.782Z,100233.00
2022-09-12T20:08:58.907Z,100229.00
2022-09-12T20:11:26.438Z,100224.00
2022-09-12T20:13:54.185Z,100225.00
2022-09-12T20:16:25.725Z,100216.00
2022-09-12T20:18:56.865Z,100222.00
2022-09-12T20:21:32.109Z,100222.00
2022-09-12T20:24:06.864Z,100206.00
2022-09-12T20:26:35.262Z,100211.00
2022-09-12T20:29:05.093Z,100210.00
2022-09-12T20:31:33.881Z,100210.00
2022-09-12T20:34:01.463Z,100203.00
2022-09-12T20:36:29.532Z,100202.00
2022-09-12T20:39:01.509Z,100204.00
2022-09-12T20:41:36.212Z,100204.00
2022-09-12T20:44:04.092Z,100205.00
2022-09-12T20:46:34.590Z,100201.00
2022-09-12T20:49:02.470Z,100192.00
2022-09-12T20:51:30.665Z,100192.00
2022-09-12T20:54:00.353Z,100187.00
2022-09-12T20:56:29.186Z,100189.00
2022-09-12T20:58:57.842Z,100185.00
2022-09-12T21:01:26.779Z,100175.00
2022-09-12T21:03:55.076Z,100180.00
2022-09-12T21:06:23.662Z,100173.00
2022-09-12T21:08:51.821Z,100176.00
2022-09-12T21:11:20.767Z,100168.00
2022-09-12T21:13:48.873Z,100173.00
2022-09-12T21:16:19.876Z,100163.00
2022-09-12T21:18:48.191Z,100164.00
2022-09-12T21:21:16.873Z,100161.00
2022-09-12T21:23:45.569Z,100149.00
2022-09-12T21:26:13.886Z,100149.00
2022-09-12T21:28:41.824Z,100143.00
2022-09-12T21:31:12.262Z,100144.00
2022-09-12T21:33:40.753Z,100148.00
2022-09-12T21:36:09.420Z,100150.00
2022-09-12T21:38:37.509Z,100147.00
2022-09-12T21:41:14.018Z,100150.00
2022-09-12T21:43:42.717Z,100147.00
2022-09-12T21:46:10.896Z,100145.00
2022-09-12T21:48:38.857Z,100133.00
2022-09-12T21:51:07.041Z,100133.00
2022-09-12T21:53:35.092Z,100122.00
2022-09-12T21:56:09.797Z,100129.00
2022-09-12T21:58:38.265Z,100116.00
2022-09-12T22:01:11.687Z,100109.00
2022-09-12T22:03:39.723Z,100117.00
2022-09-12T22:06:08.023Z,100112.00
2022-09-12T22:08:37.773Z,100110.00
2022-09-12T22:11:09.732Z,100105.00
2022-09-12T22:13:44.125Z,100111.00
2022-09-12T22:16:12.853Z,100098.00
2022-09-12T22:18:42.154Z,100090.00
2022-09-12T22:21:14.137Z,100085.00
2022-09-12T22:24:00.416Z,100084.00
2022-09-12T22:26:30.306Z,100079.00
2022-09-12T22:28:58.287Z,100076.00
2022-09-12T22:31:29.229Z,100078.00
2022-09-12T22:33:59.903Z,100073.00
2022-09-12T22:36:31.124Z,100065.00
2022-09-12T22:39:00.293Z,100067.00
2022-09-12T22:41:28.722Z,100065.00
2022-09-12T22:43:57.723Z,100061.00
2022-09-12T22:46:28.713Z,100057.00
2022-09-12T22:48:56.595Z,100056.00
2022-09-12T22:51:24.680Z,100059.00
2022-09-12T22:53:55.639Z,100062.00
2022-09-12T22:56:23.734Z,100055.00
2022-09-12T22:58:51.629Z,100050.00
2022-09-12T23:01:21.022Z,100049.00
2022-09-12T23:03:49.113Z,100048.00
2022-09-12T23:06:20.415Z,100048.00
2022-09-12T23:08:48.282Z,100049.00
2022-09-12T23:11:21.114Z,100051.00
2022-09-12T23:13:50.506Z,100041.00
2022-09-12T23:16:20.892Z,100043.00
2022-09-12T23:18:49.672Z,100041.00
2022-09-12T23:21:19.706Z,100030.00
2022-09-12T23:23:47.710Z,100018.00
2022-09-12T23:26:21.904Z,100015.00
2022-09-12T23:28:53.872Z,100016.00
2022-09-12T23:31:26.568Z,100014.00
2022-09-12T23:33:55.053Z,100007.00
2022-09-12T23:36:24.269Z,99999.00
2022-09-12T23:38:52.550Z,100001.00
2022-09-12T23:41:20.866Z,100003.00
2022-09-12T23:43:48.975Z,100011.00
2022-09-12T23:46:18.270Z,100013.00
2022-09-12T23:48:46.301Z,100016.00
2022-09-12T23:51:14.631Z,100014.00
2022-09-12T23:53:43.023Z,100013.00
2022-09-12T23:56:11.011Z,100010.00
2022-09-12T23:58:38.750Z,100011.00
